createdAt,value
2022-09-23T00:00:45.768Z,43.67
2022-09-23T00:01:45.744Z,43.83
2022-09-23T00:02:45.694Z,43.51
2022-09-23T00:03:45.668Z,44.15
2022-09-23T00:04:45.702Z,43.83
2022-09-23T00:05:45.640Z,43.51
2022-09-23T00:06:45.648Z,43.67
2022-09-23T00:07:45.621Z,43.99
2022-09-23T00:08:45.672Z,43.67
2022-09-23T00:09:45.646Z,43.02
2022-09-23T00:10:45.650Z,44.47
2022-09-23T00:11:45.608Z,46.08
2022-09-23T00:12:45.602Z,43.34
2022-09-23T00:13:45.589Z,44.31
2022-09-23T00:14:45.637Z,45.28
2022-09-23T00:15:45.589Z,44.63
2022-09-23T00:16:45.607Z,45.12
2022-09-23T00:17:45.576Z,44.96
2022-09-23T00:18:45.555Z,43.83
2022-09-23T00:19:45.623Z,43.18
2022-09-23T00:20:45.528Z,42.70
2022-09-23T00:21:45.560Z,44.15
2022-09-23T00:22:45.532Z,43.51
2022-09-23T00:23:45.546Z,43.67
2022-09-23T00:24:45.569Z,45.28
2022-09-23T00:25:45.536Z,45.28
2022-09-23T00:26:45.503Z,45.92
2022-09-23T00:27:45.497Z,44.79
2022-09-23T00:28:45.472Z,43.51
2022-09-23T00:29:45.490Z,43.18
2022-09-23T00:30:45.565Z,43.18
2022-09-23T00:31:45.546Z,43.18
2022-09-23T00:32:45.451Z,43.67
2022-09-23T00:33:45.455Z,43.83
2022-09-23T00:34:45.452Z,43.18
2022-09-23T00:35:45.442Z,43.51
2022-09-23T00:36:45.435Z,43.51
2022-09-23T00:37:45.435Z,43.51
2022-09-23T00:38:45.413Z,44.15
2022-09-23T00:39:45.383Z,44.31
2022-09-23T00:40:45.451Z,44.31
2022-09-23T00:41:45.416Z,44.63
2022-09-23T00:42:45.396Z,44.47
2022-09-23T00:43:45.369Z,44.79
2022-09-23T00:44:45.372Z,46.25
2022-09-23T00:45:46.396Z,43.99
2022-09-23T00:46:45.389Z,43.51
2022-09-23T00:47:45.344Z,44.63
2022-09-23T00:48:45.339Z,43.02
2022-09-23T00:49:45.387Z,43.18
2022-09-23T00:50:45.305Z,43.34
2022-09-23T00:51:45.388Z,44.15
2022-09-23T00:52:45.373Z,47.53
2022-09-23T00:53:45.312Z,42.70
2022-09-23T00:54:45.290Z,42.54
2022-09-23T00:55:45.294Z,43.02
2022-09-23T00:56:45.281Z,43.34
2022-09-23T00:57:45.339Z,43.83
2022-09-23T00:58:45.337Z,43.18
2022-09-23T00:59:45.270Z,43.18
2022-09-23T01:00:45.266Z,43.67
2022-09-23T01:01:45.374Z,43.67
2022-09-23T01:02:45.337Z,44.15
2022-09-23T01:03:45.295Z,42.54
2022-09-23T01:04:45.254Z,43.67
2022-09-23T01:05:45.287Z,42.54
2022-09-23T01:06:45.226Z,43.02
2022-09-23T01:07:45.220Z,43.02
2022-09-23T01:08:45.207Z,43.02
2022-09-23T01:09:45.226Z,42.86
2022-09-23T01:10:45.194Z,42.70
2022-09-23T01:11:45.166Z,42.38
2022-09-23T01:12:45.177Z,42.06
2022-09-23T01:13:45.159Z,42.22
2022-09-23T01:14:45.150Z,42.70
2022-09-23T01:15:45.155Z,42.70
2022-09-23T01:16:45.237Z,43.18
2022-09-23T01:17:45.140Z,42.38
2022-09-23T01:18:45.118Z,42.38
2022-09-23T01:19:45.182Z,42.38
2022-09-23T01:20:45.174Z,42.86
2022-09-23T01:21:45.126Z,43.02
2022-09-23T01:22:45.197Z,42.70
2022-09-23T01:23:45.101Z,42.70
2022-09-23T01:24:45.078Z,42.38
2022-09-23T01:25:45.114Z,43.99
2022-09-23T01:26:45.073Z,43.02
2022-09-23T01:27:45.096Z,42.54
2022-09-23T01:28:45.064Z,42.54
2022-09-23T01:29:45.059Z,42.86
2022-09-23T01:30:45.148Z,43.99
2022-09-23T01:31:45.015Z,42.22
2022-09-23T01:32:45.067Z,42.22
2022-09-23T01:33:45.054Z,43.34
2022-09-23T01:34:45.064Z,42.70
2022-09-23T01:35:45.020Z,42.22
2022-09-23T01:36:45.004Z,42.54
2022-09-23T01:37:44.994Z,42.70
2022-09-23T01:38:45.012Z,43.02
2022-09-23T01:39:44.962Z,42.54
2022-09-23T01:40:44.998Z,42.70
2022-09-23T01:41:44.947Z,42.38
2022-09-23T01:42:44.933Z,43.02
2022-09-23T01:43:44.976Z,42.70
2022-09-23T01:44:44.941Z,41.89
2022-09-23T02:03:30.077Z,42.86
2022-09-23T02:04:30.045Z,41.73
2022-09-23T02:05:30.059Z,42.38
2022-09-23T02:06:30.051Z,42.86
2022-09-23T02:07:30.025Z,43.02
2022-09-23T02:08:31.168Z,42.22
2022-09-23T02:09:31.223Z,42.54
2022-09-23T02:10:31.166Z,42.70
2022-09-23T02:11:31.140Z,43.02
2022-09-23T02:12:31.123Z,42.86
2022-09-23T02:13:31.137Z,42.38
2022-09-23T02:14:31.092Z,42.54
2022-09-23T02:15:31.176Z,43.02
2022-09-23T02:16:31.109Z,41.89
2022-09-23T02:17:31.096Z,42.06
2022-09-23T02:18:31.095Z,42.22
2022-09-23T02:19:31.108Z,43.02
2022-09-23T02:20:31.098Z,43.99
2022-09-23T02:21:31.087Z,42.54
2022-09-23T02:22:31.060Z,42.22
2022-09-23T02:23:31.041Z,42.06
2022-09-23T02:24:31.052Z,42.22
2022-09-23T02:25:31.262Z,41.73
2022-09-23T02:26:31.023Z,41.73
2022-09-23T02:27:31.015Z,41.25
2022-09-23T02:28:30.994Z,41.89
2022-09-23T02:29:31.002Z,42.22
2022-09-23T02:30:30.996Z,42.06
2022-09-23T02:31:31.044Z,42.22
2022-09-23T02:32:30.998Z,44.31
2022-09-23T02:33:31.000Z,42.22
2022-09-23T02:34:30.991Z,42.06
2022-09-23T02:35:30.973Z,42.22
2022-09-23T02:36:30.931Z,43.83
2022-09-23T02:37:30.936Z,42.70
2022-09-23T02:38:30.950Z,42.38
2022-09-23T02:39:30.942Z,41.89
2022-09-23T02:40:31.007Z,44.63
2022-09-23T02:41:30.935Z,42.38
2022-09-23T02:42:30.939Z,42.22
2022-09-23T02:43:30.939Z,42.54
2022-09-23T02:44:30.894Z,42.06
2022-09-23T02:45:30.899Z,42.06
2022-09-23T02:46:30.860Z,43.18
2022-09-23T02:47:30.990Z,42.06
2022-09-23T02:48:30.874Z,43.02
2022-09-23T02:49:30.846Z,42.70
2022-09-23T02:50:30.848Z,42.22
2022-09-23T02:51:30.853Z,42.06
2022-09-23T02:52:30.817Z,42.06
2022-09-23T02:53:30.843Z,42.06
2022-09-23T02:54:30.805Z,41.89
2022-09-23T02:55:30.786Z,41.89
2022-09-23T02:56:30.789Z,42.06
2022-09-23T02:57:30.805Z,44.31
2022-09-23T02:58:30.770Z,42.22
2022-09-23T02:59:30.812Z,42.22
2022-09-23T03:00:30.767Z,42.54
2022-09-23T03:01:30.846Z,47.37
2022-09-23T03:02:30.847Z,42.38
2022-09-23T03:03:30.730Z,42.54
2022-09-23T03:04:30.748Z,42.70
2022-09-23T03:05:30.724Z,42.70
2022-09-23T03:06:30.776Z,46.08
2022-09-23T03:07:30.724Z,42.06
2022-09-23T03:08:30.700Z,48.50
2022-09-23T03:09:30.743Z,43.18
2022-09-23T03:10:30.669Z,44.47
2022-09-23T03:11:30.674Z,45.76
2022-09-23T03:12:30.678Z,43.51
2022-09-23T03:13:30.689Z,41.89
2022-09-23T03:14:30.666Z,42.06
2022-09-23T03:15:30.652Z,42.22
2022-09-23T03:16:30.683Z,55.43
2022-09-23T03:17:30.629Z,45.12
2022-09-23T03:18:30.673Z,43.18
2022-09-23T03:19:30.637Z,42.06
2022-09-23T03:20:30.650Z,43.02
2022-09-23T03:21:30.632Z,41.89
2022-09-23T03:22:30.605Z,42.38
2022-09-23T03:23:30.585Z,43.02
2022-09-23T03:24:30.609Z,43.34
2022-09-23T03:25:30.587Z,44.96
2022-09-23T03:26:30.602Z,46.25
2022-09-23T03:27:30.553Z,42.86
2022-09-23T03:28:30.576Z,41.73
2022-09-23T03:29:30.544Z,47.37
2022-09-23T03:30:30.540Z,45.76
2022-09-23T03:31:30.591Z,43.99
2022-09-23T03:32:30.524Z,52.21
2022-09-23T03:33:30.521Z,44.47
2022-09-23T03:34:30.522Z,52.85
2022-09-23T03:35:30.506Z,47.86
2022-09-23T03:36:30.554Z,45.60
2022-09-23T03:37:30.587Z,42.38
2022-09-23T03:38:30.496Z,48.18
2022-09-23T03:39:30.511Z,52.69
2022-09-23T03:40:30.578Z,45.12
2022-09-23T03:41:30.475Z,51.08
2022-09-23T03:42:30.495Z,48.98
2022-09-23T03:43:30.441Z,43.02
2022-09-23T03:44:30.426Z,44.79
2022-09-23T03:45:30.484Z,48.82
2022-09-23T03:46:30.433Z,44.63
2022-09-23T04:03:36.708Z,45.60
2022-09-23T04:04:37.797Z,44.47
2022-09-23T04:05:37.806Z,53.01
2022-09-23T04:06:38.362Z,46.25
2022-09-23T04:07:37.781Z,56.40
2022-09-23T04:08:37.809Z,48.66
2022-09-23T04:09:37.791Z,47.21
2022-09-23T04:10:37.762Z,44.15
2022-09-23T04:11:37.770Z,44.79
2022-09-23T04:12:37.777Z,47.37
2022-09-23T04:13:37.791Z,49.47
2022-09-23T04:14:37.809Z,51.72
2022-09-23T04:15:37.781Z,47.21
2022-09-23T04:16:37.810Z,49.63
2022-09-23T04:17:37.784Z,45.44
2022-09-23T04:18:37.772Z,51.08
2022-09-23T04:19:37.768Z,43.18
2022-09-23T04:20:37.777Z,44.15
2022-09-23T04:21:37.751Z,54.14
2022-09-23T04:22:37.780Z,42.70
2022-09-23T04:23:37.678Z,48.34
2022-09-23T04:24:37.635Z,54.46
2022-09-23T04:25:37.661Z,48.18
2022-09-23T04:26:37.630Z,43.83
2022-09-23T04:27:38.163Z,55.59
2022-09-23T04:28:38.618Z,51.56
2022-09-23T04:29:37.609Z,51.40
2022-09-23T04:30:37.606Z,58.65
2022-09-23T04:31:37.670Z,58.65
2022-09-23T04:32:37.612Z,57.52
2022-09-23T04:33:37.598Z,54.95
2022-09-23T04:34:37.585Z,49.63
2022-09-23T04:35:40.182Z,45.76
2022-09-23T04:36:38.570Z,57.85
2022-09-23T04:37:37.564Z,56.72
2022-09-23T04:38:37.563Z,46.89
2022-09-23T04:39:37.528Z,61.07
2022-09-23T04:40:37.554Z,61.07
2022-09-23T04:41:37.551Z,53.01
2022-09-23T04:42:37.573Z,51.56
2022-09-23T04:43:37.553Z,54.95
2022-09-23T04:44:37.539Z,62.36
2022-09-23T04:45:37.582Z,55.27
2022-09-23T04:46:37.551Z,64.29
2022-09-23T04:47:37.497Z,50.11
2022-09-23T04:48:37.498Z,51.08
2022-09-23T04:49:37.472Z,48.66
2022-09-23T04:50:37.466Z,57.36
2022-09-23T04:51:37.473Z,60.26
2022-09-23T04:52:37.453Z,50.60
2022-09-23T04:53:37.440Z,56.56
2022-09-23T04:54:37.441Z,52.85
2022-09-23T04:55:37.450Z,56.24
2022-09-23T04:56:37.436Z,53.50
2022-09-23T04:57:37.416Z,58.49
2022-09-23T04:58:37.392Z,53.98
2022-09-23T04:59:37.402Z,49.15
2022-09-23T05:00:37.509Z,52.37
2022-09-23T05:01:37.438Z,53.98
2022-09-23T05:02:37.435Z,50.43
2022-09-23T05:03:37.354Z,52.85
2022-09-23T05:04:37.368Z,53.01
2022-09-23T05:05:37.349Z,61.55
2022-09-23T05:06:37.357Z,58.01
2022-09-23T05:07:37.326Z,52.05
2022-09-23T05:08:37.315Z,59.62
2022-09-23T05:09:37.307Z,56.56
2022-09-23T05:10:37.343Z,52.37
2022-09-23T05:11:37.306Z,48.50
2022-09-23T05:12:37.338Z,53.66
2022-09-23T05:13:37.289Z,52.21
2022-09-23T05:14:37.316Z,47.05
2022-09-23T05:15:37.254Z,59.46
2022-09-23T05:16:37.359Z,67.19
2022-09-23T05:17:37.322Z,43.99
2022-09-23T05:18:37.235Z,55.11
2022-09-23T05:19:37.242Z,52.69
2022-09-23T05:20:37.253Z,62.52
2022-09-23T05:21:37.224Z,65.74
2022-09-23T05:22:37.237Z,46.89
2022-09-23T05:23:37.175Z,50.92
2022-09-23T05:24:37.171Z,50.43
2022-09-23T05:25:38.456Z,59.14
2022-09-23T05:26:38.180Z,68.00
2022-09-23T05:27:37.178Z,67.68
2022-09-23T05:28:37.151Z,66.71
2022-09-23T05:29:37.147Z,51.24
2022-09-23T05:30:37.129Z,61.39
2022-09-23T05:31:37.186Z,70.74
2022-09-23T05:32:37.168Z,57.04
2022-09-23T05:33:37.121Z,64.61
2022-09-23T05:34:37.132Z,64.29
2022-09-23T05:35:37.125Z,57.20
2022-09-23T05:36:38.773Z,62.04
2022-09-23T05:37:38.094Z,58.17
2022-09-23T05:38:37.126Z,63.97
2022-09-23T05:39:37.476Z,52.37
2022-09-23T05:40:37.133Z,48.18
2022-09-23T05:41:37.059Z,51.08
2022-09-23T05:42:37.056Z,55.75
2022-09-23T05:43:37.026Z,61.71
2022-09-23T05:44:37.036Z,47.53
2022-09-23T05:45:37.020Z,61.23
2022-09-23T05:46:37.148Z,59.14
2022-09-23T05:47:37.070Z,51.88
2022-09-23T05:48:37.040Z,59.62
2022-09-23T05:49:58.034Z,59.46
2022-09-23T05:50:38.994Z,51.72
2022-09-23T05:51:37.001Z,51.88
2022-09-23T05:52:37.022Z,61.07
2022-09-23T05:53:36.980Z,56.72
2022-09-23T05:54:36.995Z,60.91
2022-09-23T05:55:36.974Z,63.49
2022-09-23T05:56:36.966Z,62.20
2022-09-23T05:57:36.923Z,49.31
2022-09-23T05:58:36.947Z,62.52
2022-09-23T05:59:36.957Z,64.61
2022-09-23T06:00:37.955Z,64.13
2022-09-23T06:01:37.083Z,47.21
2022-09-23T06:02:36.934Z,60.91
2022-09-23T06:03:36.912Z,57.20
2022-09-23T06:04:36.889Z,58.49
2022-09-23T06:05:36.916Z,46.08
2022-09-23T06:06:36.858Z,55.27
2022-09-23T06:07:36.851Z,57.20
2022-09-23T06:08:36.854Z,61.23
2022-09-23T06:09:36.983Z,59.46
2022-09-23T06:10:36.831Z,59.62
2022-09-23T06:11:36.850Z,57.36
2022-09-23T06:12:36.841Z,56.88
2022-09-23T06:13:36.817Z,62.52
2022-09-23T06:14:36.797Z,51.88
2022-09-23T06:15:36.798Z,55.59
2022-09-23T06:16:36.817Z,63.33
2022-09-23T06:17:36.778Z,53.01
2022-09-23T06:18:36.784Z,44.79
2022-09-23T06:19:36.792Z,59.46
2022-09-23T06:20:36.749Z,53.50
2022-09-23T06:21:36.738Z,52.85
2022-09-23T06:22:39.063Z,54.62
2022-09-23T06:23:40.705Z,47.05
2022-09-23T06:24:37.758Z,50.27
2022-09-23T06:25:36.717Z,52.85
2022-09-23T06:26:36.720Z,52.85
2022-09-23T06:27:36.708Z,55.43
2022-09-23T06:28:36.696Z,59.78
2022-09-23T06:29:36.696Z,51.56
2022-09-23T06:30:36.684Z,60.26
2022-09-23T06:31:36.721Z,48.66
2022-09-23T06:32:36.679Z,56.56
2022-09-23T06:33:37.432Z,56.88
2022-09-23T06:34:49.689Z,60.59
2022-09-23T06:35:38.759Z,51.72
2022-09-23T06:36:43.123Z,64.78
2022-09-23T06:37:38.643Z,50.11
2022-09-23T06:38:36.631Z,49.31
2022-09-23T06:39:36.610Z,55.11
2022-09-23T06:40:36.693Z,53.66
2022-09-23T06:41:36.617Z,66.06
2022-09-23T06:42:36.585Z,48.34
2022-09-23T06:43:36.589Z,48.02
2022-09-23T06:44:36.600Z,56.24
2022-09-23T06:45:36.559Z,46.73
2022-09-23T06:46:36.709Z,59.14
2022-09-23T06:47:36.580Z,51.24
2022-09-23T06:48:36.565Z,55.59
2022-09-23T06:49:36.588Z,44.63
2022-09-23T06:50:36.537Z,61.87
2022-09-23T06:51:36.539Z,61.87
2022-09-23T06:52:36.532Z,46.25
2022-09-23T06:53:36.534Z,43.83
2022-09-23T06:54:36.525Z,57.36
2022-09-23T06:55:36.513Z,64.61
2022-09-23T06:56:39.433Z,45.28
2022-09-23T06:57:37.504Z,44.47
2022-09-23T06:58:36.493Z,61.23
2022-09-23T06:59:36.497Z,51.24
2022-09-23T07:00:36.466Z,56.88
2022-09-23T07:01:37.575Z,60.59
2022-09-23T07:02:36.642Z,54.62
2022-09-23T07:03:36.465Z,54.14
2022-09-23T07:04:36.471Z,48.34
2022-09-23T07:06:09.371Z,55.59
2022-09-23T07:06:36.398Z,54.46
2022-09-23T07:08:10.369Z,48.82
2022-09-23T07:08:36.382Z,48.18
2022-09-23T07:09:36.402Z,63.16
2022-09-23T07:10:36.400Z,63.16
2022-09-23T07:11:36.360Z,58.33
2022-09-23T07:13:15.517Z,46.25
2022-09-23T07:14:04.390Z,47.05
2022-09-23T07:15:10.946Z,56.24
2022-09-23T07:16:10.510Z,59.14
2022-09-23T07:17:09.957Z,60.59
2022-09-23T07:18:10.515Z,54.62
2022-09-23T07:18:37.096Z,63.49
2022-09-23T07:19:37.307Z,46.25
2022-09-23T07:20:36.304Z,45.28
2022-09-23T07:21:36.336Z,57.20
2022-09-23T07:22:36.312Z,49.95
2022-09-23T07:23:36.280Z,57.69
2022-09-23T07:24:36.294Z,47.21
2022-09-23T07:25:36.279Z,53.33
2022-09-23T07:26:36.277Z,45.76
2022-09-23T07:28:09.522Z,44.31
2022-09-23T07:28:36.235Z,61.71
2022-09-23T07:30:21.293Z,53.33
2022-09-23T07:30:37.226Z,59.30
2022-09-23T07:31:39.630Z,62.20
2022-09-23T07:33:26.697Z,51.08
2022-09-23T07:33:37.305Z,52.53
2022-09-23T07:34:36.244Z,63.16
2022-09-23T07:36:09.633Z,57.36
2022-09-23T07:37:09.629Z,53.01
2022-09-23T07:38:10.140Z,49.47
2022-09-23T07:38:36.169Z,64.94
2022-09-23T07:39:36.177Z,50.11
2022-09-23T07:40:36.194Z,55.11
2022-09-23T07:41:36.136Z,62.04
2022-09-23T07:42:36.121Z,61.71
2022-09-23T07:43:36.126Z,51.56
2022-09-23T07:44:36.173Z,65.90
2022-09-23T07:45:36.153Z,55.11
2022-09-23T07:46:36.245Z,46.41
2022-09-23T07:47:36.101Z,53.50
2022-09-23T07:48:36.085Z,62.36
2022-09-23T07:49:36.113Z,54.46
2022-09-23T07:50:36.073Z,54.14
2022-09-23T07:51:36.932Z,59.30
2022-09-23T07:52:37.061Z,55.75
2022-09-23T07:53:36.064Z,52.05
2022-09-23T07:54:36.082Z,46.57
2022-09-23T07:55:36.061Z,53.50
2022-09-23T07:56:36.049Z,47.70
2022-09-23T07:57:36.030Z,44.79
2022-09-23T07:58:36.025Z,62.20
2022-09-23T07:59:36.019Z,59.14
2022-09-23T08:00:36.019Z,58.17
2022-09-23T08:01:36.166Z,48.02
2022-09-23T08:02:36.089Z,45.44
2022-09-23T08:03:35.986Z,55.59
2022-09-23T08:04:35.975Z,63.65
2022-09-23T08:05:35.967Z,51.24
2022-09-23T08:06:36.993Z,61.39
2022-09-23T08:07:35.935Z,60.10
2022-09-23T08:08:35.920Z,51.72
2022-09-23T08:09:35.941Z,49.47
2022-09-23T08:10:35.918Z,63.16
2022-09-23T08:11:35.924Z,57.69
2022-09-23T08:12:35.907Z,63.00
2022-09-23T08:13:35.895Z,45.92
2022-09-23T08:14:35.895Z,46.73
2022-09-23T08:15:35.919Z,61.71
2022-09-23T08:16:35.902Z,54.79
2022-09-23T08:17:35.889Z,63.16
2022-09-23T08:18:36.775Z,55.27
2022-09-23T08:19:35.850Z,51.88
2022-09-23T08:20:35.885Z,50.43
2022-09-23T08:21:35.863Z,50.92
2022-09-23T08:22:35.846Z,62.36
2022-09-23T08:23:35.815Z,53.82
2022-09-23T08:24:35.848Z,50.60
2022-09-23T08:25:35.814Z,46.57
2022-09-23T08:26:35.795Z,59.14
2022-09-23T08:27:35.778Z,59.14
2022-09-23T08:28:35.796Z,49.31
2022-09-23T08:29:35.786Z,53.01
2022-09-23T08:30:35.757Z,62.84
2022-09-23T08:31:35.756Z,54.30
2022-09-23T08:32:35.855Z,48.02
2022-09-23T08:33:35.776Z,47.21
2022-09-23T08:34:35.801Z,60.59
2022-09-23T08:35:35.765Z,53.82
2022-09-23T08:36:35.766Z,57.20
2022-09-23T08:37:35.734Z,49.31
2022-09-23T08:38:35.704Z,52.69
2022-09-23T08:39:35.746Z,53.33
2022-09-23T08:40:35.721Z,51.88
2022-09-23T08:41:36.721Z,59.30
2022-09-23T08:42:35.696Z,53.01
2022-09-23T08:43:35.697Z,46.25
2022-09-23T08:44:35.694Z,50.92
2022-09-23T08:45:35.662Z,49.79
2022-09-23T08:46:35.778Z,48.34
2022-09-23T08:47:35.678Z,53.17
2022-09-23T08:48:35.640Z,60.59
2022-09-23T08:49:35.628Z,63.49
2022-09-23T08:50:35.656Z,53.50
2022-09-23T08:51:35.659Z,54.46
2022-09-23T08:52:35.650Z,65.58
2022-09-23T08:53:35.641Z,58.65
2022-09-23T08:54:35.618Z,49.63
2022-09-23T08:55:35.626Z,58.01
2022-09-23T08:56:35.586Z,51.40
2022-09-23T08:57:35.624Z,47.70
2022-09-23T08:58:35.580Z,49.15
2022-09-23T08:59:35.585Z,50.60
2022-09-23T09:00:35.595Z,57.69
2022-09-23T09:01:35.592Z,51.56
2022-09-23T09:02:35.659Z,54.14
2022-09-23T09:03:36.597Z,47.05
2022-09-23T09:04:35.525Z,48.50
2022-09-23T09:05:35.548Z,56.88
2022-09-23T09:06:45.667Z,50.60
2022-09-23T09:07:38.284Z,60.10
2022-09-23T09:08:36.501Z,53.33
2022-09-23T09:09:35.534Z,55.27
2022-09-23T09:10:35.518Z,55.59
2022-09-23T09:11:35.478Z,56.07
2022-09-23T09:12:35.461Z,56.24
2022-09-23T09:13:35.474Z,57.36
2022-09-23T09:14:35.485Z,48.50
2022-09-23T09:15:35.517Z,58.33
2022-09-23T09:16:58.282Z,59.78
2022-09-23T09:17:37.478Z,56.40
2022-09-23T09:18:35.479Z,52.37
2022-09-23T09:19:35.456Z,62.84
2022-09-23T09:20:35.457Z,47.21
2022-09-23T09:21:36.318Z,52.37
2022-09-23T09:23:35.403Z,56.88
2022-09-23T09:24:35.388Z,51.88
2022-09-23T09:25:35.386Z,49.47
2022-09-23T09:26:35.412Z,61.71
2022-09-23T09:27:35.346Z,58.81
2022-09-23T09:28:35.341Z,57.85
2022-09-23T09:29:36.345Z,58.65
2022-09-23T09:30:35.338Z,51.40
2022-09-23T09:31:35.427Z,56.40
2022-09-23T09:32:35.407Z,60.75
2022-09-23T09:33:35.372Z,53.33
2022-09-23T09:34:36.282Z,48.50
2022-09-23T09:35:35.287Z,62.20
2022-09-23T09:36:35.319Z,50.43
2022-09-23T09:37:35.287Z,55.43
2022-09-23T09:38:35.266Z,46.41
2022-09-23T09:39:35.315Z,59.62
2022-09-23T09:40:35.357Z,56.07
2022-09-23T09:41:35.245Z,62.68
2022-09-23T09:42:35.322Z,61.07
2022-09-23T09:43:35.243Z,54.30
2022-09-23T09:44:37.072Z,50.76
2022-09-23T09:45:35.323Z,53.98
2022-09-23T09:46:35.290Z,61.07
2022-09-23T09:47:35.223Z,50.11
2022-09-23T09:48:35.220Z,54.79
2022-09-23T09:49:40.181Z,57.36
2022-09-23T09:50:37.257Z,49.63
2022-09-23T09:51:35.196Z,53.66
2022-09-23T09:52:38.133Z,59.94
2022-09-23T09:53:35.146Z,52.37
2022-09-23T09:54:35.127Z,52.69
2022-09-23T09:55:35.097Z,60.75
2022-09-23T09:56:35.140Z,57.52
2022-09-23T09:57:36.134Z,53.17
2022-09-23T09:58:36.099Z,56.24
2022-09-23T09:59:35.097Z,57.36
2022-09-23T10:00:35.049Z,52.69
2022-09-23T10:01:35.299Z,58.81
2022-09-23T10:02:35.034Z,60.59
2022-09-23T10:03:35.077Z,52.69
2022-09-23T10:04:35.221Z,50.92
2022-09-23T10:05:35.025Z,59.94
2022-09-23T10:06:35.062Z,64.29
2022-09-23T10:07:35.014Z,52.53
2022-09-23T10:08:35.917Z,51.24
2022-09-23T10:09:35.000Z,62.36
2022-09-23T10:10:35.088Z,46.73
2022-09-23T10:11:34.967Z,53.33
2022-09-23T10:12:34.955Z,53.98
2022-09-23T10:13:34.972Z,60.91
2022-09-23T10:14:34.967Z,57.52
2022-09-23T10:15:34.964Z,55.59
2022-09-23T10:16:35.031Z,57.36
2022-09-23T10:17:34.919Z,63.16
2022-09-23T10:18:34.943Z,59.94
2022-09-23T10:19:34.886Z,61.87
2022-09-23T10:20:34.925Z,58.97
2022-09-23T10:21:35.050Z,56.56
2022-09-23T10:22:34.893Z,54.95
2022-09-23T10:23:34.902Z,55.75
2022-09-23T10:24:34.885Z,59.94
2022-09-23T10:25:34.881Z,55.59
2022-09-23T10:26:34.880Z,51.56
2022-09-23T10:27:34.888Z,52.05
2022-09-23T10:28:34.846Z,59.14
2022-09-23T10:29:34.842Z,58.33
2022-09-23T10:30:34.903Z,55.91
2022-09-23T10:31:34.826Z,59.62
2022-09-23T10:32:34.871Z,61.23
2022-09-23T10:33:34.828Z,45.60
2022-09-23T10:34:34.805Z,64.13
2022-09-23T10:35:34.836Z,56.72
2022-09-23T10:36:34.814Z,46.25
2022-09-23T10:37:34.825Z,64.94
2022-09-23T10:38:34.787Z,61.39
2022-09-23T10:39:34.792Z,46.57
2022-09-23T10:40:34.807Z,45.44
2022-09-23T10:41:34.750Z,61.55
2022-09-23T10:42:34.767Z,58.81
2022-09-23T10:43:34.779Z,58.97
2022-09-23T10:44:34.736Z,64.78
2022-09-23T10:45:37.539Z,58.97
2022-09-23T10:46:35.759Z,61.87
2022-09-23T10:47:34.725Z,63.65
2022-09-23T10:48:34.705Z,60.91
2022-09-23T10:49:34.701Z,62.36
2022-09-23T10:50:34.702Z,58.01
2022-09-23T10:51:35.673Z,60.42
2022-09-23T10:52:34.667Z,52.85
2022-09-23T10:53:34.817Z,47.70
2022-09-23T10:54:34.691Z,62.52
2022-09-23T10:55:34.652Z,63.97
2022-09-23T10:56:34.628Z,57.52
2022-09-23T10:57:34.635Z,60.26
2022-09-23T10:58:34.643Z,59.62
2022-09-23T10:59:34.688Z,51.56
2022-09-23T11:00:34.620Z,63.49
2022-09-23T11:01:34.698Z,58.33
2022-09-23T11:02:34.620Z,55.75
2022-09-23T11:03:34.614Z,59.46
2022-09-23T11:04:34.742Z,58.65
2022-09-23T11:05:34.586Z,53.17
2022-09-23T11:06:36.096Z,47.86
2022-09-23T11:07:37.116Z,56.56
2022-09-23T11:08:35.559Z,63.81
2022-09-23T11:09:34.583Z,60.75
2022-09-23T11:10:48.392Z,63.33
2022-09-23T11:11:36.546Z,63.65
2022-09-23T11:12:34.534Z,59.46
2022-09-23T11:13:34.539Z,59.78
2022-09-23T11:14:34.517Z,61.55
2022-09-23T11:15:34.578Z,60.26
2022-09-23T11:16:34.651Z,57.36
2022-09-23T11:17:34.505Z,60.91
2022-09-23T11:18:34.490Z,60.91
2022-09-23T11:19:34.504Z,55.11
2022-09-23T11:20:34.539Z,63.16
2022-09-23T11:21:35.456Z,62.68
2022-09-23T11:22:35.111Z,51.88
2022-09-23T11:23:34.456Z,60.10
2022-09-23T11:24:34.447Z,62.68
2022-09-23T11:25:34.453Z,54.62
2022-09-23T11:26:34.462Z,56.24
2022-09-23T11:27:34.470Z,56.72
2022-09-23T11:28:35.146Z,60.75
2022-09-23T11:29:34.390Z,60.91
2022-09-23T11:30:34.500Z,59.78
2022-09-23T11:31:35.307Z,57.85
2022-09-23T11:32:34.424Z,64.45
2022-09-23T11:33:34.419Z,60.10
2022-09-23T11:34:34.482Z,62.20
2022-09-23T11:35:34.380Z,62.68
2022-09-23T11:36:35.321Z,63.65
2022-09-23T11:37:34.355Z,59.94
2022-09-23T11:38:34.393Z,50.92
2022-09-23T11:39:34.311Z,58.81
2022-09-23T11:40:34.573Z,54.46
2022-09-23T11:41:34.312Z,57.52
2022-09-23T11:42:34.403Z,63.81
2022-09-23T11:43:34.314Z,61.39
2022-09-23T11:44:34.383Z,60.75
2022-09-23T11:45:34.472Z,62.04
2022-09-23T11:46:34.318Z,54.30
2022-09-23T11:47:38.976Z,63.65
2022-09-23T11:48:36.278Z,59.94
2022-09-23T11:49:34.298Z,63.16
2022-09-23T11:50:34.278Z,55.27
2022-09-23T11:51:34.233Z,63.00
2022-09-23T11:52:34.296Z,60.26
2022-09-23T11:53:34.224Z,62.68
2022-09-23T11:54:34.235Z,61.39
2022-09-23T11:55:34.234Z,47.37
2022-09-23T11:56:36.144Z,59.62
2022-09-23T11:57:44.744Z,50.60
2022-09-23T11:58:36.369Z,62.84
2022-09-23T11:59:40.265Z,61.07
2022-09-23T12:00:36.190Z,61.23
2022-09-23T12:01:37.654Z,63.97
2022-09-23T12:02:35.273Z,53.33
2022-09-23T12:03:42.869Z,54.95
2022-09-23T12:04:39.060Z,58.97
2022-09-23T12:05:35.440Z,53.33
2022-09-23T12:06:34.156Z,63.16
2022-09-23T12:07:34.196Z,65.58
2022-09-23T12:08:34.159Z,56.88
2022-09-23T12:09:56.602Z,65.10
2022-09-23T12:10:36.110Z,63.97
2022-09-23T12:11:34.071Z,62.04
2022-09-23T12:12:34.131Z,61.71
2022-09-23T12:13:34.063Z,61.71
2022-09-23T12:14:34.061Z,64.45
2022-09-23T12:15:34.049Z,59.78
2022-09-23T12:16:34.157Z,62.84
2022-09-23T12:17:34.075Z,57.85
2022-09-23T12:18:35.689Z,59.94
2022-09-23T12:19:34.026Z,59.30
2022-09-23T12:20:35.637Z,62.36
2022-09-23T12:21:51.251Z,59.78
2022-09-23T12:22:36.031Z,53.50
2022-09-23T12:23:34.014Z,58.81
2022-09-23T12:24:34.005Z,62.68
2022-09-23T12:25:34.039Z,62.36
2022-09-23T12:26:34.004Z,62.36
2022-09-23T12:27:33.956Z,58.33
2022-09-23T12:28:33.985Z,60.91
2022-09-23T12:29:33.983Z,64.29
2022-09-23T12:30:34.091Z,66.71
2022-09-23T12:31:36.357Z,60.75
2022-09-23T12:32:34.943Z,64.94
2022-09-23T12:33:33.980Z,54.79
2022-09-23T12:34:33.967Z,51.40
2022-09-23T12:35:33.945Z,62.68
2022-09-23T12:36:33.960Z,62.20
2022-09-23T12:37:33.896Z,58.49
2022-09-23T12:38:33.902Z,64.61
2022-09-23T12:39:33.936Z,51.24
2022-09-23T12:40:33.945Z,64.78
2022-09-23T12:41:33.902Z,61.07
2022-09-23T12:42:33.857Z,58.65
2022-09-23T12:43:33.861Z,62.04
2022-09-23T12:44:33.897Z,50.11
2022-09-23T12:45:34.051Z,55.75
2022-09-23T12:46:33.857Z,63.97
2022-09-23T12:47:33.831Z,61.23
2022-09-23T12:48:33.849Z,63.00
2022-09-23T12:49:33.824Z,59.62
2022-09-23T12:50:34.403Z,60.10
2022-09-23T12:51:33.822Z,48.98
2022-09-23T12:52:33.829Z,63.81
2022-09-23T12:53:33.811Z,60.59
2022-09-23T12:54:33.799Z,50.43
2022-09-23T12:55:33.787Z,58.65
2022-09-23T12:56:33.805Z,60.91
2022-09-23T12:57:33.772Z,62.04
2022-09-23T12:58:33.762Z,62.52
2022-09-23T12:59:33.745Z,60.26
2022-09-23T13:00:34.463Z,63.16
2022-09-23T13:01:34.774Z,63.65
2022-09-23T13:02:33.750Z,61.87
2022-09-23T13:03:33.695Z,62.84
2022-09-23T13:04:33.679Z,52.37
2022-09-23T13:05:33.703Z,61.39
2022-09-23T13:06:33.756Z,53.33
2022-09-23T13:07:33.722Z,63.16
2022-09-23T13:08:33.689Z,64.78
2022-09-23T13:09:33.676Z,57.36
2022-09-23T13:10:33.657Z,64.78
2022-09-23T13:11:33.664Z,51.24
2022-09-23T13:12:33.732Z,62.84
2022-09-23T13:13:33.654Z,61.39
2022-09-23T13:14:33.631Z,60.59
2022-09-23T13:15:33.635Z,46.08
2022-09-23T13:16:33.651Z,49.31
2022-09-23T13:17:33.640Z,64.29
2022-09-23T13:18:33.624Z,58.33
2022-09-23T13:19:38.560Z,64.61
2022-09-23T13:20:35.564Z,62.68
2022-09-23T13:21:33.610Z,53.17
2022-09-23T13:22:33.595Z,64.13
2022-09-23T13:23:33.559Z,63.16
2022-09-23T13:24:33.544Z,58.01
2022-09-23T13:25:33.558Z,48.18
2022-09-23T13:26:33.568Z,55.75
2022-09-23T13:27:33.537Z,55.59